Osawatomie, Kansas
Current Conditions -  °F | °C
As of 9:53 PM on Saturday 22 Nov 2014 (Local Time) from KIXD Reporting Station
Overcast Overcast  
Wind Chill: 54°   Ceiling: 1400
Heat Index: 54°   Visibility: 10mi
Dew Point: 51°   Wind: 15mph
Humidity: 90%   Direction: 190°S
Pressure: 29.73"   Gusts: 21mph
Location:  38.5°N, 94.95°W
Report Text: KIXD 230353Z 19013G18KT 10SM OVC014 12/11 A2973 RMK AO2 SLP063 T01220106
Loading
Personal Weather Stations






























Interactive Weather Map New forecast layout! Learn more

10-Day Weather Forecast

Advertisements
Track Severe Weather on mobile